sensor_id;sensor_type;location;lat;lon;timestamp;temperature;humidity
70947;DHT22;58605;48.700;8.760;2023-04-06T00:00:22;-0.60;99.90
70947;DHT22;58605;48.700;8.760;2023-04-06T00:02:48;-0.60;99.90
70947;DHT22;58605;48.700;8.760;2023-04-06T00:05:16;-0.70;99.90
70947;DHT22;58605;48.700;8.760;2023-04-06T00:07:42;-0.70;99.90
70947;DHT22;58605;48.700;8.760;2023-04-06T00:10:09;-0.70;99.90
70947;DHT22;58605;48.700;8.760;2023-04-06T00:12:35;-0.80;99.90
70947;DHT22;58605;48.700;8.760;2023-04-06T00:15:02;-0.90;99.90
70947;DHT22;58605;48.700;8.760;2023-04-06T00:17:28;-0.90;99.90
70947;DHT22;58605;48.700;8.760;2023-04-06T00:19:55;-0.90;99.90
70947;DHT22;58605;48.700;8.760;2023-04-06T00:22:22;-1.00;99.90
70947;DHT22;58605;48.700;8.760;2023-04-06T00:24:49;-1.00;99.90
70947;DHT22;58605;48.700;8.760;2023-04-06T00:27:15;-0.90;99.90
70947;DHT22;58605;48.700;8.760;2023-04-06T00:29:41;-0.90;99.90
70947;DHT22;58605;48.700;8.760;2023-04-06T00:32:07;-0.90;99.90
70947;DHT22;58605;48.700;8.760;2023-04-06T00:34:33;-0.90;99.90
70947;DHT22;58605;48.700;8.760;2023-04-06T00:36:59;-0.90;99.90
70947;DHT22;58605;48.700;8.760;2023-04-06T00:39:27;-0.90;99.90
70947;DHT22;58605;48.700;8.760;2023-04-06T00:41:53;-0.90;99.90
70947;DHT22;58605;48.700;8.760;2023-04-06T00:44:20;-1.00;99.90
70947;DHT22;58605;48.700;8.760;2023-04-06T00:46:47;-1.00;99.90
70947;DHT22;58605;48.700;8.760;2023-04-06T00:49:13;-1.00;99.90
70947;DHT22;58605;48.700;8.760;2023-04-06T00:51:39;-1.00;99.90
70947;DHT22;58605;48.700;8.760;2023-04-06T00:54:05;-1.10;99.90
70947;DHT22;58605;48.700;8.760;2023-04-06T00:56:33;-1.00;99.90
70947;DHT22;58605;48.700;8.760;2023-04-06T00:58:59;-1.10;99.90
70947;DHT22;58605;48.700;8.760;2023-04-06T01:04:32;-1.10;99.90
70947;DHT22;58605;48.700;8.760;2023-04-06T01:06:58;-1.10;99.90
70947;DHT22;58605;48.700;8.760;2023-04-06T01:09:24;-1.10;99.90
70947;DHT22;58605;48.700;8.760;2023-04-06T01:11:52;-1.20;99.90
70947;DHT22;58605;48.700;8.760;2023-04-06T01:14:18;-1.30;99.90
70947;DHT22;58605;48.700;8.760;2023-04-06T01:16:44;-1.40;99.90
70947;DHT22;58605;48.700;8.760;2023-04-06T01:19:11;-1.50;99.90
70947;DHT22;58605;48.700;8.760;2023-04-06T01:21:37;-1.60;99.90
70947;DHT22;58605;48.700;8.760;2023-04-06T01:24:06;-1.60;99.90
70947;DHT22;58605;48.700;8.760;2023-04-06T01:26:32;-1.50;99.90
70947;DHT22;58605;48.700;8.760;2023-04-06T01:28:59;-1.50;99.90
70947;DHT22;58605;48.700;8.760;2023-04-06T01:31:25;-1.50;99.90
70947;DHT22;58605;48.700;8.760;2023-04-06T01:33:52;-1.50;99.90
70947;DHT22;58605;48.700;8.760;2023-04-06T01:36:19;-1.50;99.90
70947;DHT22;58605;48.700;8.760;2023-04-06T01:38:45;-1.50;99.90
70947;DHT22;58605;48.700;8.760;2023-04-06T01:41:12;-1.60;99.90
70947;DHT22;58605;48.700;8.760;2023-04-06T01:43:39;-1.60;99.90
70947;DHT22;58605;48.700;8.760;2023-04-06T01:46:05;-1.40;99.90
70947;DHT22;58605;48.700;8.760;2023-04-06T01:48:31;-1.30;99.90
70947;DHT22;58605;48.700;8.760;2023-04-06T01:50:57;-1.40;99.90
70947;DHT22;58605;48.700;8.760;2023-04-06T01:53:23;-1.50;99.90
70947;DHT22;58605;48.700;8.760;2023-04-06T01:55:50;-1.40;99.90
70947;DHT22;58605;48.700;8.760;2023-04-06T01:58:17;-1.50;99.90
70947;DHT22;58605;48.700;8.760;2023-04-06T02:00:43;-1.60;99.90
70947;DHT22;58605;48.700;8.760;2023-04-06T02:03:09;-1.60;99.90
70947;DHT22;58605;48.700;8.760;2023-04-06T02:05:35;-1.70;99.90
70947;DHT22;58605;48.700;8.760;2023-04-06T02:08:03;-1.70;99.90
70947;DHT22;58605;48.700;8.760;2023-04-06T02:10:30;-1.60;99.90
70947;DHT22;58605;48.700;8.760;2023-04-06T02:12:56;-1.60;99.90
70947;DHT22;58605;48.700;8.760;2023-04-06T02:15:23;-1.60;99.90
70947;DHT22;58605;48.700;8.760;2023-04-06T02:17:49;-1.60;99.90
70947;DHT22;58605;48.700;8.760;2023-04-06T02:20:15;-1.70;99.90
70947;DHT22;58605;48.700;8.760;2023-04-06T02:22:42;-1.70;99.90
70947;DHT22;58605;48.700;8.760;2023-04-06T02:25:08;-1.80;99.90
70947;DHT22;58605;48.700;8.760;2023-04-06T02:27:34;-1.80;99.90
70947;DHT22;58605;48.700;8.760;2023-04-06T02:30:01;-1.90;99.90
70947;DHT22;58605;48.700;8.760;2023-04-06T02:32:29;-1.90;99.90
70947;DHT22;58605;48.700;8.760;2023-04-06T02:34:55;-1.80;99.90
70947;DHT22;58605;48.700;8.760;2023-04-06T02:37:21;-1.80;99.90
70947;DHT22;58605;48.700;8.760;2023-04-06T02:39:48;-1.80;99.90
70947;DHT22;58605;48.700;8.760;2023-04-06T02:42:15;-1.70;99.90
70947;DHT22;58605;48.700;8.760;2023-04-06T02:44:41;-1.70;99.90
70947;DHT22;58605;48.700;8.760;2023-04-06T02:47:07;-1.70;99.90
70947;DHT22;58605;48.700;8.760;2023-04-06T02:49:35;-1.70;99.90
70947;DHT22;58605;48.700;8.760;2023-04-06T02:52:02;-1.70;99.90
70947;DHT22;58605;48.700;8.760;2023-04-06T02:54:28;-1.60;99.90
70947;DHT22;58605;48.700;8.760;2023-04-06T02:56:55;-1.60;99.90
70947;DHT22;58605;48.700;8.760;2023-04-06T02:59:21;-1.70;99.90
70947;DHT22;58605;48.700;8.760;2023-04-06T03:01:47;-1.70;99.90
70947;DHT22;58605;48.700;8.760;2023-04-06T03:04:13;-1.80;99.90
70947;DHT22;58605;48.700;8.760;2023-04-06T03:06:40;-1.80;99.90
70947;DHT22;58605;48.700;8.760;2023-04-06T03:09:06;-1.80;99.90
70947;DHT22;58605;48.700;8.760;2023-04-06T03:11:33;-1.70;99.90
70947;DHT22;58605;48.700;8.760;2023-04-06T03:13:59;-1.80;99.90
70947;DHT22;58605;48.700;8.760;2023-04-06T03:16:25;-1.80;99.90
70947;DHT22;58605;48.700;8.760;2023-04-06T03:18:51;-1.90;99.90
70947;DHT22;58605;48.700;8.760;2023-04-06T03:21:17;-1.90;99.90
70947;DHT22;58605;48.700;8.760;2023-04-06T03:23:44;-1.80;99.90
70947;DHT22;58605;48.700;8.760;2023-04-06T03:26:10;-2.00;99.90
70947;DHT22;58605;48.700;8.760;2023-04-06T03:28:36;-2.10;99.90
70947;DHT22;58605;48.700;8.760;2023-04-06T03:31:03;-2.10;99.90
70947;DHT22;58605;48.700;8.760;2023-04-06T03:33:29;-2.10;99.90
70947;DHT22;58605;48.700;8.760;2023-04-06T03:35:55;-2.10;99.90
70947;DHT22;58605;48.700;8.760;2023-04-06T03:38:21;-2.10;99.90
70947;DHT22;58605;48.700;8.760;2023-04-06T03:40:48;-2.20;99.90
70947;DHT22;58605;48.700;8.760;2023-04-06T03:43:14;-2.20;99.90
70947;DHT22;58605;48.700;8.760;2023-04-06T03:45:41;-2.10;99.90
70947;DHT22;58605;48.700;8.760;2023-04-06T03:48:07;-2.20;99.90
70947;DHT22;58605;48.700;8.760;2023-04-06T03:50:33;-2.10;99.90
70947;DHT22;58605;48.700;8.760;2023-04-06T03:52:59;-2.20;99.90
70947;DHT22;58605;48.700;8.760;2023-04-06T03:55:25;-2.20;99.90
70947;DHT22;58605;48.700;8.760;2023-04-06T03:57:52;-2.20;99.90
70947;DHT22;58605;48.700;8.760;2023-04-06T04:00:18;-2.20;99.90
70947;DHT22;58605;48.700;8.760;2023-04-06T04:02:44;-2.20;99.90
70947;DHT22;58605;48.700;8.760;2023-04-06T04:05:11;-2.20;99.90
70947;DHT22;58605;48.700;8.760;2023-04-06T04:07:37;-2.30;99.90
70947;DHT22;58605;48.700;8.760;2023-04-06T04:10:03;-2.30;99.90
70947;DHT22;58605;48.700;8.760;2023-04-06T04:12:29;-2.30;99.90
70947;DHT22;58605;48.700;8.760;2023-04-06T04:14:57;-2.30;99.90
70947;DHT22;58605;48.700;8.760;2023-04-06T04:17:24;-2.30;99.90
70947;DHT22;58605;48.700;8.760;2023-04-06T04:19:50;-2.30;99.90
70947;DHT22;58605;48.700;8.760;2023-04-06T04:22:16;-2.30;99.90
70947;DHT22;58605;48.700;8.760;2023-04-06T04:24:42;-2.20;99.90
70947;DHT22;58605;48.700;8.760;2023-04-06T04:27:08;-2.20;99.90
70947;DHT22;58605;48.700;8.760;2023-04-06T04:29:34;-2.20;99.90
70947;DHT22;58605;48.700;8.760;2023-04-06T04:32:02;-2.30;99.90
70947;DHT22;58605;48.700;8.760;2023-04-06T04:34:28;-2.20;99.90
70947;DHT22;58605;48.700;8.760;2023-04-06T04:36:54;-2.20;99.90
70947;DHT22;58605;48.700;8.760;2023-04-06T04:39:21;-2.10;99.90
70947;DHT22;58605;48.700;8.760;2023-04-06T04:41:47;-2.10;99.90
70947;DHT22;58605;48.700;8.760;2023-04-06T04:44:13;-2.20;99.90
70947;DHT22;58605;48.700;8.760;2023-04-06T04:46:39;-2.20;99.90
70947;DHT22;58605;48.700;8.760;2023-04-06T04:49:08;-2.20;99.90
70947;DHT22;58605;48.700;8.760;2023-04-06T04:51:34;-2.20;99.90
70947;DHT22;58605;48.700;8.760;2023-04-06T04:54:00;-2.30;99.90
70947;DHT22;58605;48.700;8.760;2023-04-06T04:56:26;-2.30;99.90
70947;DHT22;58605;48.700;8.760;2023-04-06T04:58:53;-2.20;99.90
70947;DHT22;58605;48.700;8.760;2023-04-06T05:01:19;-2.20;99.90
70947;DHT22;58605;48.700;8.760;2023-04-06T05:03:46;-2.20;99.90
70947;DHT22;58605;48.700;8.760;2023-04-06T05:06:13;-2.10;99.90
70947;DHT22;58605;48.700;8.760;2023-04-06T05:08:40;-2.10;99.90
70947;DHT22;58605;48.700;8.760;2023-04-06T05:11:06;-2.10;99.90
70947;DHT22;58605;48.700;8.760;2023-04-06T05:13:32;-2.20;99.90
70947;DHT22;58605;48.700;8.760;2023-04-06T05:15:58;-2.20;99.90
70947;DHT22;58605;48.700;8.760;2023-04-06T05:18:25;-2.20;99.90
70947;DHT22;58605;48.700;8.760;2023-04-06T05:20:52;-2.20;99.90
70947;DHT22;58605;48.700;8.760;2023-04-06T05:23:19;-2.20;99.90
70947;DHT22;58605;48.700;8.760;2023-04-06T05:25:46;-2.30;99.90
70947;DHT22;58605;48.700;8.760;2023-04-06T05:28:12;-2.40;99.90
70947;DHT22;58605;48.700;8.760;2023-04-06T05:30:40;-2.40;99.90
70947;DHT22;58605;48.700;8.760;2023-04-06T05:33:06;-2.40;99.90
70947;DHT22;58605;48.700;8.760;2023-04-06T05:35:32;-2.40;99.90
70947;DHT22;58605;48.700;8.760;2023-04-06T05:37:58;-2.40;99.90
70947;DHT22;58605;48.700;8.760;2023-04-06T05:40:25;-2.40;99.90
70947;DHT22;58605;48.700;8.760;2023-04-06T05:42:51;-2.30;99.90
70947;DHT22;58605;48.700;8.760;2023-04-06T05:45:17;-2.30;99.90
70947;DHT22;58605;48.700;8.760;2023-04-06T05:47:44;-2.20;99.90
70947;DHT22;58605;48.700;8.760;2023-04-06T05:50:11;-2.30;99.90
70947;DHT22;58605;48.700;8.760;2023-04-06T05:52:37;-2.30;99.90
70947;DHT22;58605;48.700;8.760;2023-04-06T05:55:04;-2.20;99.90
70947;DHT22;58605;48.700;8.760;2023-04-06T05:57:31;-2.20;99.90
70947;DHT22;58605;48.700;8.760;2023-04-06T05:59:57;-2.10;99.90
70947;DHT22;58605;48.700;8.760;2023-04-06T06:02:23;-2.10;99.90
70947;DHT22;58605;48.700;8.760;2023-04-06T06:04:50;-2.00;99.90
70947;DHT22;58605;48.700;8.760;2023-04-06T06:07:16;-1.80;99.90
70947;DHT22;58605;48.700;8.760;2023-04-06T06:09:42;-1.80;99.90
70947;DHT22;58605;48.700;8.760;2023-04-06T06:12:08;-1.70;99.90
70947;DHT22;58605;48.700;8.760;2023-04-06T06:14:35;-1.60;99.90
70947;DHT22;58605;48.700;8.760;2023-04-06T06:17:01;-1.50;99.90
70947;DHT22;58605;48.700;8.760;2023-04-06T06:19:27;-1.40;99.90
70947;DHT22;58605;48.700;8.760;2023-04-06T06:21:53;-1.40;99.90
70947;DHT22;58605;48.700;8.760;2023-04-06T06:24:20;-1.30;99.90
70947;DHT22;58605;48.700;8.760;2023-04-06T06:26:46;-1.10;99.90
70947;DHT22;58605;48.700;8.760;2023-04-06T06:29:14;-1.10;99.90
70947;DHT22;58605;48.700;8.760;2023-04-06T06:31:42;-1.00;99.90
70947;DHT22;58605;48.700;8.760;2023-04-06T06:34:08;-0.90;99.90
70947;DHT22;58605;48.700;8.760;2023-04-06T06:36:34;-0.80;99.90
70947;DHT22;58605;48.700;8.760;2023-04-06T06:39:01;-0.80;99.90
70947;DHT22;58605;48.700;8.760;2023-04-06T06:41:29;-0.60;99.90
70947;DHT22;58605;48.700;8.760;2023-04-06T06:43:55;-0.50;99.90
70947;DHT22;58605;48.700;8.760;2023-04-06T06:46:21;-0.40;99.90
70947;DHT22;58605;48.700;8.760;2023-04-06T06:48:48;-0.30;99.90
70947;DHT22;58605;48.700;8.760;2023-04-06T06:51:14;-0.10;99.90
70947;DHT22;58605;48.700;8.760;2023-04-06T06:53:41;0.00;99.90
70947;DHT22;58605;48.700;8.760;2023-04-06T06:56:07;0.20;99.90
70947;DHT22;58605;48.700;8.760;2023-04-06T06:58:33;0.30;99.90
70947;DHT22;58605;48.700;8.760;2023-04-06T07:00:59;0.50;99.60
70947;DHT22;58605;48.700;8.760;2023-04-06T07:03:25;0.50;98.30
70947;DHT22;58605;48.700;8.760;2023-04-06T07:05:55;0.60;97.10
70947;DHT22;58605;48.700;8.760;2023-04-06T07:08:21;0.80;97.30
70947;DHT22;58605;48.700;8.760;2023-04-06T07:10:48;0.90;96.80
70947;DHT22;58605;48.700;8.760;2023-04-06T07:13:14;1.10;96.90
70947;DHT22;58605;48.700;8.760;2023-04-06T07:15:47;1.30;95.60
70947;DHT22;58605;48.700;8.760;2023-04-06T07:18:13;1.40;96.20
70947;DHT22;58605;48.700;8.760;2023-04-06T07:20:39;1.60;95.40
70947;DHT22;58605;48.700;8.760;2023-04-06T07:23:07;1.80;95.00
70947;DHT22;58605;48.700;8.760;2023-04-06T07:25:33;2.00;94.00
70947;DHT22;58605;48.700;8.760;2023-04-06T07:27:59;2.10;91.40
70947;DHT22;58605;48.700;8.760;2023-04-06T07:30:25;2.30;91.30
70947;DHT22;58605;48.700;8.760;2023-04-06T07:32:53;2.40;90.90
70947;DHT22;58605;48.700;8.760;2023-04-06T07:35:21;2.60;90.40
70947;DHT22;58605;48.700;8.760;2023-04-06T07:37:47;2.70;88.40
70947;DHT22;58605;48.700;8.760;2023-04-06T07:40:15;2.80;89.20
70947;DHT22;58605;48.700;8.760;2023-04-06T07:42:41;2.90;88.40
70947;DHT22;58605;48.700;8.760;2023-04-06T07:45:07;3.00;89.50
70947;DHT22;58605;48.700;8.760;2023-04-06T07:47:34;3.20;88.70
70947;DHT22;58605;48.700;8.760;2023-04-06T07:50:00;3.30;87.50
70947;DHT22;58605;48.700;8.760;2023-04-06T07:52:26;3.50;87.40
70947;DHT22;58605;48.700;8.760;2023-04-06T07:54:52;3.60;87.20
70947;DHT22;58605;48.700;8.760;2023-04-06T07:57:19;3.70;85.30
70947;DHT22;58605;48.700;8.760;2023-04-06T07:59:46;3.80;85.00
70947;DHT22;58605;48.700;8.760;2023-04-06T08:02:12;3.90;85.50
70947;DHT22;58605;48.700;8.760;2023-04-06T08:04:38;4.10;84.80
70947;DHT22;58605;48.700;8.760;2023-04-06T08:07:04;4.20;84.00
70947;DHT22;58605;48.700;8.760;2023-04-06T08:09:30;4.20;83.00
70947;DHT22;58605;48.700;8.760;2023-04-06T08:11:57;4.20;81.80
70947;DHT22;58605;48.700;8.760;2023-04-06T08:14:24;4.20;80.90
70947;DHT22;58605;48.700;8.760;2023-04-06T08:16:50;4.20;80.70
70947;DHT22;58605;48.700;8.760;2023-04-06T08:19:17;4.20;80.00
70947;DHT22;58605;48.700;8.760;2023-04-06T08:21:44;4.30;81.00
70947;DHT22;58605;48.700;8.760;2023-04-06T08:24:11;4.30;79.80
70947;DHT22;58605;48.700;8.760;2023-04-06T08:26:37;4.30;78.70
70947;DHT22;58605;48.700;8.760;2023-04-06T08:29:04;4.30;77.90
70947;DHT22;58605;48.700;8.760;2023-04-06T08:31:34;4.40;78.00
70947;DHT22;58605;48.700;8.760;2023-04-06T08:34:00;4.40;77.50
70947;DHT22;58605;48.700;8.760;2023-04-06T08:36:27;4.40;76.70
70947;DHT22;58605;48.700;8.760;2023-04-06T08:38:53;4.30;76.40
70947;DHT22;58605;48.700;8.760;2023-04-06T08:41:19;4.30;76.60
70947;DHT22;58605;48.700;8.760;2023-04-06T08:43:47;4.30;76.10
70947;DHT22;58605;48.700;8.760;2023-04-06T08:46:14;4.30;76.80
70947;DHT22;58605;48.700;8.760;2023-04-06T08:48:43;4.20;75.90
70947;DHT22;58605;48.700;8.760;2023-04-06T08:51:09;4.20;75.80
70947;DHT22;58605;48.700;8.760;2023-04-06T08:53:35;4.20;75.70
70947;DHT22;58605;48.700;8.760;2023-04-06T08:56:02;4.00;76.50
70947;DHT22;58605;48.700;8.760;2023-04-06T08:58:34;4.10;76.00
70947;DHT22;58605;48.700;8.760;2023-04-06T09:01:01;4.10;75.90
70947;DHT22;58605;48.700;8.760;2023-04-06T09:03:28;4.10;75.70
70947;DHT22;58605;48.700;8.760;2023-04-06T09:05:56;3.90;76.60
70947;DHT22;58605;48.700;8.760;2023-04-06T09:08:23;3.90;77.00
70947;DHT22;58605;48.700;8.760;2023-04-06T09:10:50;3.90;77.20
70947;DHT22;58605;48.700;8.760;2023-04-06T09:13:17;4.00;76.60
70947;DHT22;58605;48.700;8.760;2023-04-06T09:15:43;4.10;76.10
70947;DHT22;58605;48.700;8.760;2023-04-06T09:18:09;4.20;75.80
70947;DHT22;58605;48.700;8.760;2023-04-06T09:20:36;4.30;75.50
70947;DHT22;58605;48.700;8.760;2023-04-06T09:23:03;4.30;75.10
70947;DHT22;58605;48.700;8.760;2023-04-06T09:25:30;4.30;74.90
70947;DHT22;58605;48.700;8.760;2023-04-06T09:28:04;4.20;74.70
70947;DHT22;58605;48.700;8.760;2023-04-06T09:30:36;4.20;75.00
70947;DHT22;58605;48.700;8.760;2023-04-06T09:33:13;4.20;75.40
70947;DHT22;58605;48.700;8.760;2023-04-06T09:35:39;4.20;75.90
70947;DHT22;58605;48.700;8.760;2023-04-06T09:38:12;4.40;73.30
70947;DHT22;58605;48.700;8.760;2023-04-06T09:40:48;4.40;74.20
70947;DHT22;58605;48.700;8.760;2023-04-06T09:43:23;4.40;74.40
70947;DHT22;58605;48.700;8.760;2023-04-06T09:45:50;4.40;74.10
70947;DHT22;58605;48.700;8.760;2023-04-06T09:48:17;4.30;74.50
70947;DHT22;58605;48.700;8.760;2023-04-06T09:50:44;4.30;74.70
70947;DHT22;58605;48.700;8.760;2023-04-06T09:53:12;4.30;74.30
70947;DHT22;58605;48.700;8.760;2023-04-06T09:55:48;4.40;74.20
70947;DHT22;58605;48.700;8.760;2023-04-06T09:58:16;4.40;74.70
70947;DHT22;58605;48.700;8.760;2023-04-06T10:00:48;4.40;74.10
70947;DHT22;58605;48.700;8.760;2023-04-06T10:03:26;4.50;73.60
70947;DHT22;58605;48.700;8.760;2023-04-06T10:06:00;4.40;73.60
70947;DHT22;58605;48.700;8.760;2023-04-06T10:08:33;4.40;73.70
70947;DHT22;58605;48.700;8.760;2023-04-06T10:11:00;4.40;73.50
70947;DHT22;58605;48.700;8.760;2023-04-06T10:13:27;4.40;74.30
70947;DHT22;58605;48.700;8.760;2023-04-06T10:15:54;4.40;73.30
70947;DHT22;58605;48.700;8.760;2023-04-06T10:18:29;4.60;72.80
70947;DHT22;58605;48.700;8.760;2023-04-06T10:21:00;4.70;71.70
70947;DHT22;58605;48.700;8.760;2023-04-06T10:23:37;5.10;69.10
70947;DHT22;58605;48.700;8.760;2023-04-06T10:26:05;4.90;70.30
70947;DHT22;58605;48.700;8.760;2023-04-06T10:28:37;4.90;70.50
70947;DHT22;58605;48.700;8.760;2023-04-06T10:31:05;4.90;70.60
70947;DHT22;58605;48.700;8.760;2023-04-06T10:33:32;4.90;70.30
70947;DHT22;58605;48.700;8.760;2023-04-06T10:36:09;5.00;70.20
70947;DHT22;58605;48.700;8.760;2023-04-06T10:38:38;5.00;70.90
70947;DHT22;58605;48.700;8.760;2023-04-06T10:41:07;4.90;70.30
70947;DHT22;58605;48.700;8.760;2023-04-06T10:43:36;5.00;69.10
70947;DHT22;58605;48.700;8.760;2023-04-06T10:46:05;5.50;67.30
70947;DHT22;58605;48.700;8.760;2023-04-06T10:48:41;5.30;68.40
70947;DHT22;58605;48.700;8.760;2023-04-06T10:51:11;5.20;69.20
70947;DHT22;58605;48.700;8.760;2023-04-06T10:53:39;5.20;69.20
70947;DHT22;58605;48.700;8.760;2023-04-06T10:56:10;5.10;69.50
70947;DHT22;58605;48.700;8.760;2023-04-06T10:58:44;5.00;69.40
70947;DHT22;58605;48.700;8.760;2023-04-06T11:01:11;4.90;69.90
70947;DHT22;58605;48.700;8.760;2023-04-06T11:03:43;4.90;70.00
70947;DHT22;58605;48.700;8.760;2023-04-06T11:06:09;4.90;70.60
70947;DHT22;58605;48.700;8.760;2023-04-06T11:08:35;5.00;70.70
70947;DHT22;58605;48.700;8.760;2023-04-06T11:11:08;5.00;70.40
70947;DHT22;58605;48.700;8.760;2023-04-06T11:13:40;5.10;70.30
70947;DHT22;58605;48.700;8.760;2023-04-06T11:16:06;5.10;70.10
70947;DHT22;58605;48.700;8.760;2023-04-06T11:18:32;5.20;69.90
70947;DHT22;58605;48.700;8.760;2023-04-06T11:20:58;5.10;69.80
70947;DHT22;58605;48.700;8.760;2023-04-06T11:23:25;5.20;69.80
70947;DHT22;58605;48.700;8.760;2023-04-06T11:25:51;5.20;69.50
70947;DHT22;58605;48.700;8.760;2023-04-06T11:28:19;5.40;67.50
70947;DHT22;58605;48.700;8.760;2023-04-06T11:30:45;6.20;63.90
70947;DHT22;58605;48.700;8.760;2023-04-06T11:33:20;6.40;64.00
70947;DHT22;58605;48.700;8.760;2023-04-06T11:35:47;6.10;65.50
70947;DHT22;58605;48.700;8.760;2023-04-06T11:38:13;5.80;66.50
70947;DHT22;58605;48.700;8.760;2023-04-06T11:40:39;5.60;67.10
70947;DHT22;58605;48.700;8.760;2023-04-06T11:43:05;5.50;67.60
70947;DHT22;58605;48.700;8.760;2023-04-06T11:45:41;5.40;67.90
70947;DHT22;58605;48.700;8.760;2023-04-06T11:48:17;5.50;68.20
70947;DHT22;58605;48.700;8.760;2023-04-06T11:50:46;5.40;68.20
70947;DHT22;58605;48.700;8.760;2023-04-06T11:53:13;5.50;69.10
70947;DHT22;58605;48.700;8.760;2023-04-06T11:55:39;5.60;67.80
70947;DHT22;58605;48.700;8.760;2023-04-06T11:58:05;5.60;67.60
70947;DHT22;58605;48.700;8.760;2023-04-06T12:00:32;5.50;68.00
70947;DHT22;58605;48.700;8.760;2023-04-06T12:03:02;5.40;68.10
70947;DHT22;58605;48.700;8.760;2023-04-06T12:05:28;5.50;68.50
70947;DHT22;58605;48.700;8.760;2023-04-06T12:07:54;5.70;67.00
70947;DHT22;58605;48.700;8.760;2023-04-06T12:10:20;6.10;66.20
70947;DHT22;58605;48.700;8.760;2023-04-06T12:12:46;6.60;65.50
70947;DHT22;58605;48.700;8.760;2023-04-06T12:15:12;6.10;66.40
70947;DHT22;58605;48.700;8.760;2023-04-06T12:17:38;5.90;67.30
70947;DHT22;58605;48.700;8.760;2023-04-06T12:20:07;5.70;67.80
70947;DHT22;58605;48.700;8.760;2023-04-06T12:22:33;5.60;68.40
70947;DHT22;58605;48.700;8.760;2023-04-06T12:24:59;5.60;68.90
70947;DHT22;58605;48.700;8.760;2023-04-06T12:27:25;5.60;68.80
70947;DHT22;58605;48.700;8.760;2023-04-06T12:29:51;5.60;69.00
70947;DHT22;58605;48.700;8.760;2023-04-06T12:32:17;5.60;69.30
70947;DHT22;58605;48.700;8.760;2023-04-06T12:34:43;5.70;69.00
70947;DHT22;58605;48.700;8.760;2023-04-06T12:37:11;5.90;67.00
70947;DHT22;58605;48.700;8.760;2023-04-06T12:39:37;5.90;67.80
70947;DHT22;58605;48.700;8.760;2023-04-06T12:42:03;5.90;67.90
70947;DHT22;58605;48.700;8.760;2023-04-06T12:44:30;6.20;68.10
70947;DHT22;58605;48.700;8.760;2023-04-06T12:46:56;6.10;67.40
70947;DHT22;58605;48.700;8.760;2023-04-06T12:49:22;6.00;67.40
70947;DHT22;58605;48.700;8.760;2023-04-06T12:51:48;6.30;64.60
70947;DHT22;58605;48.700;8.760;2023-04-06T12:54:16;7.10;61.20
70947;DHT22;58605;48.700;8.760;2023-04-06T12:56:42;7.10;62.80
70947;DHT22;58605;48.700;8.760;2023-04-06T12:59:08;6.70;64.80
70947;DHT22;58605;48.700;8.760;2023-04-06T13:01:34;6.40;65.10
70947;DHT22;58605;48.700;8.760;2023-04-06T13:04:01;6.20;66.00
70947;DHT22;58605;48.700;8.760;2023-04-06T13:06:27;6.00;66.60
70947;DHT22;58605;48.700;8.760;2023-04-06T13:08:53;5.90;67.90
70947;DHT22;58605;48.700;8.760;2023-04-06T13:11:21;5.70;67.40
70947;DHT22;58605;48.700;8.760;2023-04-06T13:13:49;5.70;68.00
70947;DHT22;58605;48.700;8.760;2023-04-06T13:16:15;5.80;68.10
70947;DHT22;58605;48.700;8.760;2023-04-06T13:18:42;5.70;68.00
70947;DHT22;58605;48.700;8.760;2023-04-06T13:21:08;5.70;68.10
70947;DHT22;58605;48.700;8.760;2023-04-06T13:23:34;5.70;68.10
70947;DHT22;58605;48.700;8.760;2023-04-06T13:26:01;5.70;68.20
70947;DHT22;58605;48.700;8.760;2023-04-06T13:28:31;5.70;68.30
70947;DHT22;58605;48.700;8.760;2023-04-06T13:30:59;5.70;68.50
70947;DHT22;58605;48.700;8.760;2023-04-06T13:33:26;5.80;68.20
70947;DHT22;58605;48.700;8.760;2023-04-06T13:35:52;5.80;68.30
70947;DHT22;58605;48.700;8.760;2023-04-06T13:38:18;5.80;68.10
70947;DHT22;58605;48.700;8.760;2023-04-06T13:40:44;5.80;68.40
70947;DHT22;58605;48.700;8.760;2023-04-06T13:43:11;5.80;68.50
70947;DHT22;58605;48.700;8.760;2023-04-06T13:45:38;5.80;68.50
70947;DHT22;58605;48.700;8.760;2023-04-06T13:48:05;5.80;68.60
70947;DHT22;58605;48.700;8.760;2023-04-06T13:50:31;5.70;68.80
70947;DHT22;58605;48.700;8.760;2023-04-06T13:52:57;5.70;69.00
70947;DHT22;58605;48.700;8.760;2023-04-06T13:55:24;5.70;68.80
70947;DHT22;58605;48.700;8.760;2023-04-06T13:57:50;5.80;68.90
70947;DHT22;58605;48.700;8.760;2023-04-06T14:00:17;5.80;68.90
70947;DHT22;58605;48.700;8.760;2023-04-06T14:02:44;6.80;64.30
70947;DHT22;58605;48.700;8.760;2023-04-06T14:05:11;7.40;62.80
70947;DHT22;58605;48.700;8.760;2023-04-06T14:07:37;7.60;62.20
70947;DHT22;58605;48.700;8.760;2023-04-06T14:10:04;8.20;60.10
70947;DHT22;58605;48.700;8.760;2023-04-06T14:12:30;9.50;56.70
70947;DHT22;58605;48.700;8.760;2023-04-06T14:14:57;9.60;55.90
70947;DHT22;58605;48.700;8.760;2023-04-06T14:17:23;9.50;56.70
70947;DHT22;58605;48.700;8.760;2023-04-06T14:19:50;9.60;54.70
70947;DHT22;58605;48.700;8.760;2023-04-06T14:22:17;9.20;57.20
70947;DHT22;58605;48.700;8.760;2023-04-06T14:24:44;8.40;58.90
70947;DHT22;58605;48.700;8.760;2023-04-06T14:27:10;7.80;60.50
70947;DHT22;58605;48.700;8.760;2023-04-06T14:29:36;7.30;61.90
70947;DHT22;58605;48.700;8.760;2023-04-06T14:32:02;6.90;63.20
70947;DHT22;58605;48.700;8.760;2023-04-06T14:34:28;6.90;63.70
70947;DHT22;58605;48.700;8.760;2023-04-06T14:36:56;7.50;61.20
70947;DHT22;58605;48.700;8.760;2023-04-06T14:39:22;7.60;61.50
70947;DHT22;58605;48.700;8.760;2023-04-06T14:41:48;7.20;63.50
70947;DHT22;58605;48.700;8.760;2023-04-06T14:44:15;7.30;62.50
70947;DHT22;58605;48.700;8.760;2023-04-06T14:46:42;8.50;58.20
70947;DHT22;58605;48.700;8.760;2023-04-06T14:49:08;8.80;58.10
70947;DHT22;58605;48.700;8.760;2023-04-06T14:51:34;8.60;59.40
70947;DHT22;58605;48.700;8.760;2023-04-06T14:54:02;8.30;60.00
70947;DHT22;58605;48.700;8.760;2023-04-06T14:56:28;8.70;59.90
70947;DHT22;58605;48.700;8.760;2023-04-06T14:58:57;9.20;58.50
70947;DHT22;58605;48.700;8.760;2023-04-06T15:01:23;9.90;56.00
70947;DHT22;58605;48.700;8.760;2023-04-06T15:03:49;10.40;53.60
70947;DHT22;58605;48.700;8.760;2023-04-06T15:06:15;10.70;53.60
70947;DHT22;58605;48.700;8.760;2023-04-06T15:08:42;10.70;53.20
70947;DHT22;58605;48.700;8.760;2023-04-06T15:11:10;10.60;52.90
70947;DHT22;58605;48.700;8.760;2023-04-06T15:13:36;10.40;53.30
70947;DHT22;58605;48.700;8.760;2023-04-06T15:16:02;9.80;56.20
70947;DHT22;58605;48.700;8.760;2023-04-06T15:18:28;9.10;57.50
70947;DHT22;58605;48.700;8.760;2023-04-06T15:20:55;9.00;57.00
70947;DHT22;58605;48.700;8.760;2023-04-06T15:23:20;8.90;58.10
70947;DHT22;58605;48.700;8.760;2023-04-06T15:25:47;8.90;58.10
70947;DHT22;58605;48.700;8.760;2023-04-06T15:28:14;9.40;56.90
70947;DHT22;58605;48.700;8.760;2023-04-06T15:30:40;8.80;58.60
70947;DHT22;58605;48.700;8.760;2023-04-06T15:33:07;8.50;59.60
70947;DHT22;58605;48.700;8.760;2023-04-06T15:35:34;8.30;59.90
70947;DHT22;58605;48.700;8.760;2023-04-06T15:38:05;8.40;59.00
70947;DHT22;58605;48.700;8.760;2023-04-06T15:40:32;8.00;60.70